sensor_id;sensor_type;location;lat;lon;timestamp;temperature;humidity
58517;DHT22;44308;50.810;0.284;2023-07-02T00:01:57;15.80;99.90
58517;DHT22;44308;50.810;0.284;2023-07-02T00:04:23;15.80;99.90
58517;DHT22;44308;50.810;0.284;2023-07-02T00:06:49;15.80;99.90
58517;DHT22;44308;50.810;0.284;2023-07-02T00:09:15;15.90;99.90
58517;DHT22;44308;50.810;0.284;2023-07-02T00:11:43;15.90;99.90
58517;DHT22;44308;50.810;0.284;2023-07-02T00:14:14;15.80;99.90
58517;DHT22;44308;50.810;0.284;2023-07-02T00:16:43;15.80;99.90
58517;DHT22;44308;50.810;0.284;2023-07-02T00:19:11;15.80;99.90
58517;DHT22;44308;50.810;0.284;2023-07-02T00:21:36;15.80;99.90
58517;DHT22;44308;50.810;0.284;2023-07-02T00:24:03;15.80;99.90
58517;DHT22;44308;50.810;0.284;2023-07-02T00:26:29;15.80;99.90
58517;DHT22;44308;50.810;0.284;2023-07-02T00:28:55;15.70;99.90
58517;DHT22;44308;50.810;0.284;2023-07-02T00:31:22;15.70;99.90
58517;DHT22;44308;50.810;0.284;2023-07-02T00:33:49;15.70;99.90
58517;DHT22;44308;50.810;0.284;2023-07-02T00:36:15;15.60;99.90
58517;DHT22;44308;50.810;0.284;2023-07-02T00:38:42;15.70;99.90
58517;DHT22;44308;50.810;0.284;2023-07-02T00:41:09;15.60;99.90
58517;DHT22;44308;50.810;0.284;2023-07-02T00:43:55;15.60;99.90
58517;DHT22;44308;50.810;0.284;2023-07-02T00:46:22;15.60;99.90
58517;DHT22;44308;50.810;0.284;2023-07-02T00:48:49;15.50;99.90
58517;DHT22;44308;50.810;0.284;2023-07-02T00:51:16;15.50;99.90
58517;DHT22;44308;50.810;0.284;2023-07-02T00:53:45;15.50;99.90
58517;DHT22;44308;50.810;0.284;2023-07-02T00:56:12;15.50;99.90
58517;DHT22;44308;50.810;0.284;2023-07-02T00:58:40;15.40;99.90
58517;DHT22;44308;50.810;0.284;2023-07-02T01:01:06;15.40;99.90
58517;DHT22;44308;50.810;0.284;2023-07-02T01:04:02;15.30;99.90
58517;DHT22;44308;50.810;0.284;2023-07-02T01:06:30;15.30;99.90
58517;DHT22;44308;50.810;0.284;2023-07-02T01:09:01;15.30;99.90
58517;DHT22;44308;50.810;0.284;2023-07-02T01:11:29;15.30;99.90
58517;DHT22;44308;50.810;0.284;2023-07-02T01:14:15;15.40;99.90
58517;DHT22;44308;50.810;0.284;2023-07-02T01:16:42;15.40;99.90
58517;DHT22;44308;50.810;0.284;2023-07-02T01:19:16;15.40;99.90
58517;DHT22;44308;50.810;0.284;2023-07-02T01:21:47;15.40;99.90
58517;DHT22;44308;50.810;0.284;2023-07-02T01:24:15;15.40;99.90
58517;DHT22;44308;50.810;0.284;2023-07-02T01:26:42;15.40;99.90
58517;DHT22;44308;50.810;0.284;2023-07-02T01:31:40;15.30;99.90
58517;DHT22;44308;50.810;0.284;2023-07-02T01:34:08;15.30;99.90
58517;DHT22;44308;50.810;0.284;2023-07-02T01:36:34;15.30;99.90
58517;DHT22;44308;50.810;0.284;2023-07-02T01:39:00;15.30;99.90
58517;DHT22;44308;50.810;0.284;2023-07-02T01:41:26;15.30;99.90
58517;DHT22;44308;50.810;0.284;2023-07-02T01:43:54;15.30;99.90
58517;DHT22;44308;50.810;0.284;2023-07-02T01:46:20;15.20;99.90
58517;DHT22;44308;50.810;0.284;2023-07-02T01:48:46;15.20;99.90
58517;DHT22;44308;50.810;0.284;2023-07-02T01:51:12;15.20;99.90
58517;DHT22;44308;50.810;0.284;2023-07-02T01:53:42;15.20;99.90
58517;DHT22;44308;50.810;0.284;2023-07-02T01:56:07;15.10;99.90
58517;DHT22;44308;50.810;0.284;2023-07-02T01:58:33;15.00;99.90
58517;DHT22;44308;50.810;0.284;2023-07-02T02:00:58;15.00;99.90
58517;DHT22;44308;50.810;0.284;2023-07-02T02:03:43;14.90;99.90
58517;DHT22;44308;50.810;0.284;2023-07-02T02:06:09;14.90;99.90
58517;DHT22;44308;50.810;0.284;2023-07-02T02:08:35;14.80;99.90
58517;DHT22;44308;50.810;0.284;2023-07-02T02:11:00;14.80;99.90
58517;DHT22;44308;50.810;0.284;2023-07-02T02:13:27;14.70;99.90
58517;DHT22;44308;50.810;0.284;2023-07-02T02:15:54;14.60;99.90
58517;DHT22;44308;50.810;0.284;2023-07-02T02:18:20;14.60;99.90
58517;DHT22;44308;50.810;0.284;2023-07-02T02:20:45;14.60;99.90
58517;DHT22;44308;50.810;0.284;2023-07-02T02:23:11;14.50;99.90
58517;DHT22;44308;50.810;0.284;2023-07-02T02:25:36;14.50;99.90
58517;DHT22;44308;50.810;0.284;2023-07-02T02:28:02;14.50;99.90
58517;DHT22;44308;50.810;0.284;2023-07-02T02:30:28;14.40;99.90
58517;DHT22;44308;50.810;0.284;2023-07-02T02:32:56;14.40;99.90
58517;DHT22;44308;50.810;0.284;2023-07-02T02:35:21;14.30;99.90
58517;DHT22;44308;50.810;0.284;2023-07-02T02:37:48;14.30;99.90
58517;DHT22;44308;50.810;0.284;2023-07-02T02:40:13;14.20;99.90
58517;DHT22;44308;50.810;0.284;2023-07-02T02:42:41;14.20;99.90
58517;DHT22;44308;50.810;0.284;2023-07-02T02:45:07;14.20;99.90
58517;DHT22;44308;50.810;0.284;2023-07-02T02:47:33;14.20;99.90
58517;DHT22;44308;50.810;0.284;2023-07-02T02:49:59;14.10;99.90
58517;DHT22;44308;50.810;0.284;2023-07-02T02:52:26;14.10;99.90
58517;DHT22;44308;50.810;0.284;2023-07-02T02:54:52;14.10;99.90
58517;DHT22;44308;50.810;0.284;2023-07-02T02:57:20;14.10;99.90
58517;DHT22;44308;50.810;0.284;2023-07-02T02:59:46;14.00;99.90
58517;DHT22;44308;50.810;0.284;2023-07-02T03:02:12;13.90;99.90
58517;DHT22;44308;50.810;0.284;2023-07-02T03:04:39;13.90;99.90
58517;DHT22;44308;50.810;0.284;2023-07-02T03:07:09;13.90;99.90
58517;DHT22;44308;50.810;0.284;2023-07-02T03:09:35;13.90;99.90
58517;DHT22;44308;50.810;0.284;2023-07-02T03:12:01;13.80;99.90
58517;DHT22;44308;50.810;0.284;2023-07-02T03:14:28;13.80;99.90
58517;DHT22;44308;50.810;0.284;2023-07-02T03:16:53;13.80;99.90
58517;DHT22;44308;50.810;0.284;2023-07-02T03:19:20;13.70;99.90
58517;DHT22;44308;50.810;0.284;2023-07-02T03:21:45;13.70;99.90
58517;DHT22;44308;50.810;0.284;2023-07-02T03:24:11;13.70;99.90
58517;DHT22;44308;50.810;0.284;2023-07-02T03:26:40;13.70;99.90
58517;DHT22;44308;50.810;0.284;2023-07-02T03:29:06;13.60;99.90
58517;DHT22;44308;50.810;0.284;2023-07-02T03:31:32;13.70;99.90
58517;DHT22;44308;50.810;0.284;2023-07-02T03:33:58;13.60;99.90
58517;DHT22;44308;50.810;0.284;2023-07-02T03:36:24;13.60;99.90
58517;DHT22;44308;50.810;0.284;2023-07-02T03:38:50;13.50;99.90
58517;DHT22;44308;50.810;0.284;2023-07-02T03:41:15;13.60;99.90
58517;DHT22;44308;50.810;0.284;2023-07-02T03:43:42;13.50;99.90
58517;DHT22;44308;50.810;0.284;2023-07-02T03:46:08;13.60;99.90
58517;DHT22;44308;50.810;0.284;2023-07-02T03:48:33;13.50;99.90
58517;DHT22;44308;50.810;0.284;2023-07-02T03:51:01;13.50;99.90
58517;DHT22;44308;50.810;0.284;2023-07-02T03:53:47;13.50;99.90
58517;DHT22;44308;50.810;0.284;2023-07-02T03:56:13;13.50;99.90
58517;DHT22;44308;50.810;0.284;2023-07-02T03:58:40;13.50;99.90
58517;DHT22;44308;50.810;0.284;2023-07-02T04:01:05;13.50;99.90
58517;DHT22;44308;50.810;0.284;2023-07-02T04:03:31;13.50;99.90
58517;DHT22;44308;50.810;0.284;2023-07-02T04:05:57;13.60;99.90
58517;DHT22;44308;50.810;0.284;2023-07-02T04:08:23;13.60;99.90
58517;DHT22;44308;50.810;0.284;2023-07-02T04:10:50;13.70;99.90
58517;DHT22;44308;50.810;0.284;2023-07-02T04:13:36;13.80;99.90
58517;DHT22;44308;50.810;0.284;2023-07-02T04:16:02;13.90;99.90
58517;DHT22;44308;50.810;0.284;2023-07-02T04:18:27;13.90;99.90
58517;DHT22;44308;50.810;0.284;2023-07-02T04:20:54;13.90;99.90
58517;DHT22;44308;50.810;0.284;2023-07-02T04:23:21;14.00;99.90
58517;DHT22;44308;50.810;0.284;2023-07-02T04:25:47;14.00;99.90
58517;DHT22;44308;50.810;0.284;2023-07-02T04:28:13;14.00;99.90
58517;DHT22;44308;50.810;0.284;2023-07-02T04:30:38;14.10;99.90
58517;DHT22;44308;50.810;0.284;2023-07-02T04:33:04;14.10;99.90
58517;DHT22;44308;50.810;0.284;2023-07-02T04:35:31;14.20;99.90
58517;DHT22;44308;50.810;0.284;2023-07-02T04:37:57;14.20;99.90
58517;DHT22;44308;50.810;0.284;2023-07-02T04:40:24;14.20;99.90
58517;DHT22;44308;50.810;0.284;2023-07-02T04:42:50;14.30;99.90
58517;DHT22;44308;50.810;0.284;2023-07-02T04:45:24;14.30;99.90
58517;DHT22;44308;50.810;0.284;2023-07-02T04:47:50;14.30;99.90
58517;DHT22;44308;50.810;0.284;2023-07-02T04:50:20;14.40;99.90
58517;DHT22;44308;50.810;0.284;2023-07-02T04:52:46;14.40;99.90
58517;DHT22;44308;50.810;0.284;2023-07-02T04:55:11;14.40;99.90
58517;DHT22;44308;50.810;0.284;2023-07-02T04:57:37;14.50;99.90
58517;DHT22;44308;50.810;0.284;2023-07-02T05:00:04;14.50;99.90
58517;DHT22;44308;50.810;0.284;2023-07-02T05:02:31;14.50;99.90
58517;DHT22;44308;50.810;0.284;2023-07-02T05:04:57;14.50;99.90
58517;DHT22;44308;50.810;0.284;2023-07-02T05:07:23;14.50;99.90
58517;DHT22;44308;50.810;0.284;2023-07-02T05:09:49;14.50;99.90
58517;DHT22;44308;50.810;0.284;2023-07-02T05:12:18;14.50;99.90
58517;DHT22;44308;50.810;0.284;2023-07-02T05:14:43;14.60;99.90
58517;DHT22;44308;50.810;0.284;2023-07-02T05:17:09;14.60;99.90
58517;DHT22;44308;50.810;0.284;2023-07-02T05:19:35;14.70;99.90
58517;DHT22;44308;50.810;0.284;2023-07-02T05:22:00;14.90;99.90
58517;DHT22;44308;50.810;0.284;2023-07-02T05:24:26;14.90;99.90
58517;DHT22;44308;50.810;0.284;2023-07-02T05:26:52;15.00;99.90
58517;DHT22;44308;50.810;0.284;2023-07-02T05:29:19;15.20;99.90
58517;DHT22;44308;50.810;0.284;2023-07-02T05:31:45;15.20;99.90
58517;DHT22;44308;50.810;0.284;2023-07-02T05:34:12;15.20;99.90
58517;DHT22;44308;50.810;0.284;2023-07-02T05:36:38;15.30;99.90
58517;DHT22;44308;50.810;0.284;2023-07-02T05:39:04;15.30;99.90
58517;DHT22;44308;50.810;0.284;2023-07-02T05:41:29;15.40;99.90
58517;DHT22;44308;50.810;0.284;2023-07-02T05:44:00;15.50;99.90
58517;DHT22;44308;50.810;0.284;2023-07-02T05:46:26;15.50;99.90
58517;DHT22;44308;50.810;0.284;2023-07-02T05:48:51;15.50;99.90
58517;DHT22;44308;50.810;0.284;2023-07-02T05:51:21;15.50;99.90
58517;DHT22;44308;50.810;0.284;2023-07-02T05:53:48;15.60;99.90
58517;DHT22;44308;50.810;0.284;2023-07-02T05:56:14;15.60;99.90
58517;DHT22;44308;50.810;0.284;2023-07-02T05:58:40;15.60;99.90
58517;DHT22;44308;50.810;0.284;2023-07-02T06:01:05;15.70;99.90
58517;DHT22;44308;50.810;0.284;2023-07-02T06:03:33;15.70;99.90
58517;DHT22;44308;50.810;0.284;2023-07-02T06:05:58;15.70;99.90
58517;DHT22;44308;50.810;0.284;2023-07-02T06:08:24;15.80;99.90
58517;DHT22;44308;50.810;0.284;2023-07-02T06:10:50;15.90;99.90
58517;DHT22;44308;50.810;0.284;2023-07-02T06:13:16;15.90;99.90
58517;DHT22;44308;50.810;0.284;2023-07-02T06:15:43;16.00;99.90
58517;DHT22;44308;50.810;0.284;2023-07-02T06:18:09;16.00;99.90
58517;DHT22;44308;50.810;0.284;2023-07-02T06:20:34;16.00;99.90
58517;DHT22;44308;50.810;0.284;2023-07-02T06:23:00;16.10;99.90
58517;DHT22;44308;50.810;0.284;2023-07-02T06:25:26;16.20;99.90
58517;DHT22;44308;50.810;0.284;2023-07-02T06:27:52;16.70;99.90
58517;DHT22;44308;50.810;0.284;2023-07-02T06:30:21;17.50;99.90
58517;DHT22;44308;50.810;0.284;2023-07-02T06:32:48;18.50;99.90
58517;DHT22;44308;50.810;0.284;2023-07-02T06:35:14;19.20;99.90
58517;DHT22;44308;50.810;0.284;2023-07-02T06:37:40;19.60;99.90
58517;DHT22;44308;50.810;0.284;2023-07-02T06:40:06;20.20;99.90
58517;DHT22;44308;50.810;0.284;2023-07-02T06:42:34;21.00;99.90
58517;DHT22;44308;50.810;0.284;2023-07-02T06:45:02;21.10;99.90
58517;DHT22;44308;50.810;0.284;2023-07-02T06:47:28;21.50;99.90
58517;DHT22;44308;50.810;0.284;2023-07-02T06:49:53;21.50;99.90
58517;DHT22;44308;50.810;0.284;2023-07-02T06:52:19;22.00;99.90
58517;DHT22;44308;50.810;0.284;2023-07-02T06:54:45;22.20;99.90
58517;DHT22;44308;50.810;0.284;2023-07-02T06:57:12;22.40;99.90
58517;DHT22;44308;50.810;0.284;2023-07-02T06:59:38;22.60;99.90
58517;DHT22;44308;50.810;0.284;2023-07-02T07:02:04;23.40;99.90
58517;DHT22;44308;50.810;0.284;2023-07-02T07:04:30;23.80;99.90
58517;DHT22;44308;50.810;0.284;2023-07-02T07:06:56;24.00;99.90
58517;DHT22;44308;50.810;0.284;2023-07-02T07:09:22;24.00;99.90
58517;DHT22;44308;50.810;0.284;2023-07-02T07:11:47;24.00;99.90
58517;DHT22;44308;50.810;0.284;2023-07-02T07:14:32;24.20;99.90
58517;DHT22;44308;50.810;0.284;2023-07-02T07:16:58;24.30;99.90
58517;DHT22;44308;50.810;0.284;2023-07-02T07:19:23;24.10;99.90
58517;DHT22;44308;50.810;0.284;2023-07-02T07:21:49;24.10;99.90
58517;DHT22;44308;50.810;0.284;2023-07-02T07:24:16;24.30;99.90
58517;DHT22;44308;50.810;0.284;2023-07-02T07:26:41;24.60;99.90
58517;DHT22;44308;50.810;0.284;2023-07-02T07:29:07;24.60;99.90
58517;DHT22;44308;50.810;0.284;2023-07-02T07:31:33;25.10;99.90
58517;DHT22;44308;50.810;0.284;2023-07-02T07:33:58;25.60;99.90
58517;DHT22;44308;50.810;0.284;2023-07-02T07:36:24;25.80;99.90
58517;DHT22;44308;50.810;0.284;2023-07-02T07:38:50;26.20;99.90
58517;DHT22;44308;50.810;0.284;2023-07-02T07:41:15;26.60;99.90
58517;DHT22;44308;50.810;0.284;2023-07-02T07:43:41;26.70;99.90
58517;DHT22;44308;50.810;0.284;2023-07-02T07:46:07;26.30;99.90
58517;DHT22;44308;50.810;0.284;2023-07-02T07:48:33;25.90;99.90
58517;DHT22;44308;50.810;0.284;2023-07-02T07:50:59;26.00;99.90
58517;DHT22;44308;50.810;0.284;2023-07-02T07:53:25;25.90;99.90
58517;DHT22;44308;50.810;0.284;2023-07-02T07:55:51;26.20;99.90
58517;DHT22;44308;50.810;0.284;2023-07-02T07:58:16;26.20;99.90
58517;DHT22;44308;50.810;0.284;2023-07-02T08:00:42;26.50;99.90
58517;DHT22;44308;50.810;0.284;2023-07-02T08:03:28;27.00;99.90
58517;DHT22;44308;50.810;0.284;2023-07-02T08:05:54;27.40;99.90
58517;DHT22;44308;50.810;0.284;2023-07-02T08:08:19;27.10;99.90
58517;DHT22;44308;50.810;0.284;2023-07-02T08:10:45;27.10;99.90
58517;DHT22;44308;50.810;0.284;2023-07-02T08:13:12;27.00;99.90
58517;DHT22;44308;50.810;0.284;2023-07-02T08:15:38;27.00;99.90
58517;DHT22;44308;50.810;0.284;2023-07-02T08:18:03;26.70;99.90
58517;DHT22;44308;50.810;0.284;2023-07-02T08:20:29;26.40;99.90
58517;DHT22;44308;50.810;0.284;2023-07-02T08:22:55;26.60;99.90
58517;DHT22;44308;50.810;0.284;2023-07-02T08:25:21;26.10;99.90
58517;DHT22;44308;50.810;0.284;2023-07-02T08:27:47;25.40;99.90
58517;DHT22;44308;50.810;0.284;2023-07-02T08:30:13;25.50;99.90
58517;DHT22;44308;50.810;0.284;2023-07-02T08:32:40;25.80;99.90
58517;DHT22;44308;50.810;0.284;2023-07-02T08:35:07;25.30;99.90
58517;DHT22;44308;50.810;0.284;2023-07-02T08:37:33;25.00;99.90
58517;DHT22;44308;50.810;0.284;2023-07-02T08:39:58;25.00;99.90
58517;DHT22;44308;50.810;0.284;2023-07-02T08:42:24;24.40;99.90
58517;DHT22;44308;50.810;0.284;2023-07-02T08:44:55;23.50;99.90
58517;DHT22;44308;50.810;0.284;2023-07-02T08:47:22;22.80;99.90
58517;DHT22;44308;50.810;0.284;2023-07-02T08:49:49;23.00;99.90
58517;DHT22;44308;50.810;0.284;2023-07-02T08:52:15;22.80;99.90
58517;DHT22;44308;50.810;0.284;2023-07-02T08:54:41;23.30;99.90
58517;DHT22;44308;50.810;0.284;2023-07-02T08:57:09;23.30;99.90
58517;DHT22;44308;50.810;0.284;2023-07-02T08:59:36;22.40;99.90
58517;DHT22;44308;50.810;0.284;2023-07-02T09:02:04;22.10;99.90
58517;DHT22;44308;50.810;0.284;2023-07-02T09:04:30;21.60;99.90
58517;DHT22;44308;50.810;0.284;2023-07-02T09:07:09;21.10;99.90
58517;DHT22;44308;50.810;0.284;2023-07-02T09:09:46;21.30;99.90
58517;DHT22;44308;50.810;0.284;2023-07-02T09:12:32;22.40;99.90
58517;DHT22;44308;50.810;0.284;2023-07-02T09:15:04;22.30;99.90
58517;DHT22;44308;50.810;0.284;2023-07-02T09:17:37;21.80;99.90
58517;DHT22;44308;50.810;0.284;2023-07-02T09:20:05;21.30;99.90
58517;DHT22;44308;50.810;0.284;2023-07-02T09:22:34;20.90;99.90
58517;DHT22;44308;50.810;0.284;2023-07-02T09:25:00;20.70;99.90
58517;DHT22;44308;50.810;0.284;2023-07-02T09:27:36;20.60;99.90
58517;DHT22;44308;50.810;0.284;2023-07-02T09:30:07;20.20;99.90
58517;DHT22;44308;50.810;0.284;2023-07-02T09:32:34;20.20;99.90
58517;DHT22;44308;50.810;0.284;2023-07-02T09:35:01;20.20;99.90
58517;DHT22;44308;50.810;0.284;2023-07-02T09:37:28;20.40;99.90
58517;DHT22;44308;50.810;0.284;2023-07-02T09:39:55;21.50;99.90
58517;DHT22;44308;50.810;0.284;2023-07-02T09:42:21;21.50;99.90
58517;DHT22;44308;50.810;0.284;2023-07-02T09:44:48;21.70;99.90
58517;DHT22;44308;50.810;0.284;2023-07-02T09:47:18;21.60;99.90
58517;DHT22;44308;50.810;0.284;2023-07-02T09:50:03;21.70;99.90
58517;DHT22;44308;50.810;0.284;2023-07-02T09:52:32;22.40;99.90
58517;DHT22;44308;50.810;0.284;2023-07-02T09:54:58;22.00;99.90
58517;DHT22;44308;50.810;0.284;2023-07-02T09:57:24;21.90;99.90
58517;DHT22;44308;50.810;0.284;2023-07-02T09:59:50;22.50;99.90
58517;DHT22;44308;50.810;0.284;2023-07-02T10:02:16;23.10;99.90
58517;DHT22;44308;50.810;0.284;2023-07-02T10:04:46;23.30;99.90
58517;DHT22;44308;50.810;0.284;2023-07-02T10:07:25;23.60;99.90
58517;DHT22;44308;50.810;0.284;2023-07-02T10:09:51;23.50;99.90
58517;DHT22;44308;50.810;0.284;2023-07-02T10:12:18;24.10;99.90
58517;DHT22;44308;50.810;0.284;2023-07-02T10:14:44;24.40;99.90
58517;DHT22;44308;50.810;0.284;2023-07-02T10:17:10;24.40;99.90
58517;DHT22;44308;50.810;0.284;2023-07-02T10:19:55;24.20;99.90
58517;DHT22;44308;50.810;0.284;2023-07-02T10:22:22;24.30;99.90
58517;DHT22;44308;50.810;0.284;2023-07-02T10:24:56;24.40;99.90
58517;DHT22;44308;50.810;0.284;2023-07-02T10:30:00;24.80;99.90
58517;DHT22;44308;50.810;0.284;2023-07-02T10:32:26;24.80;99.90
58517;DHT22;44308;50.810;0.284;2023-07-02T10:34:55;24.80;99.90
58517;DHT22;44308;50.810;0.284;2023-07-02T10:37:21;24.20;99.90
58517;DHT22;44308;50.810;0.284;2023-07-02T10:39:47;24.40;99.90
58517;DHT22;44308;50.810;0.284;2023-07-02T10:42:12;24.30;99.90
58517;DHT22;44308;50.810;0.284;2023-07-02T10:44:52;24.00;99.90
58517;DHT22;44308;50.810;0.284;2023-07-02T10:47:18;24.00;99.90
58517;DHT22;44308;50.810;0.284;2023-07-02T10:49:44;24.20;99.90
58517;DHT22;44308;50.810;0.284;2023-07-02T10:52:10;24.20;99.90
58517;DHT22;44308;50.810;0.284;2023-07-02T10:54:43;24.00;99.90
58517;DHT22;44308;50.810;0.284;2023-07-02T10:57:12;23.20;99.90
58517;DHT22;44308;50.810;0.284;2023-07-02T10:59:39;23.00;99.90
58517;DHT22;44308;50.810;0.284;2023-07-02T11:02:05;22.70;99.90
58517;DHT22;44308;50.810;0.284;2023-07-02T11:04:32;22.60;99.90
58517;DHT22;44308;50.810;0.284;2023-07-02T11:07:00;22.90;99.90
58517;DHT22;44308;50.810;0.284;2023-07-02T11:09:26;22.60;99.90
58517;DHT22;44308;50.810;0.284;2023-07-02T11:11:57;22.70;99.90
58517;DHT22;44308;50.810;0.284;2023-07-02T11:14:33;22.90;99.90
58517;DHT22;44308;50.810;0.284;2023-07-02T11:17:03;22.90;99.90
58517;DHT22;44308;50.810;0.284;2023-07-02T11:19:31;23.20;99.90
58517;DHT22;44308;50.810;0.284;2023-07-02T11:21:58;22.80;99.90
58517;DHT22;44308;50.810;0.284;2023-07-02T11:24:34;22.60;99.90
58517;DHT22;44308;50.810;0.284;2023-07-02T11:27:01;22.30;99.90
58517;DHT22;44308;50.810;0.284;2023-07-02T11:29:29;22.60;99.90
58517;DHT22;44308;50.810;0.284;2023-07-02T11:32:03;22.80;99.90
58517;DHT22;44308;50.810;0.284;2023-07-02T11:34:29;23.10;99.90
58517;DHT22;44308;50.810;0.284;2023-07-02T11:36:55;23.40;99.90
58517;DHT22;44308;50.810;0.284;2023-07-02T11:39:20;23.80;99.90
58517;DHT22;44308;50.810;0.284;2023-07-02T11:41:47;23.40;99.90
58517;DHT22;44308;50.810;0.284;2023-07-02T11:44:14;23.40;99.90
58517;DHT22;44308;50.810;0.284;2023-07-02T11:46:40;23.40;99.90
58517;DHT22;44308;50.810;0.284;2023-07-02T11:49:06;23.30;99.90
58517;DHT22;44308;50.810;0.284;2023-07-02T11:51:38;23.30;99.90
58517;DHT22;44308;50.810;0.284;2023-07-02T11:54:04;23.20;99.90
58517;DHT22;44308;50.810;0.284;2023-07-02T11:56:30;22.90;99.90
58517;DHT22;44308;50.810;0.284;2023-07-02T11:58:57;23.10;99.90
58517;DHT22;44308;50.810;0.284;2023-07-02T12:01:22;23.20;99.90
58517;DHT22;44308;50.810;0.284;2023-07-02T12:03:48;23.60;99.90
58517;DHT22;44308;50.810;0.284;2023-07-02T12:06:14;23.60;99.90
58517;DHT22;44308;50.810;0.284;2023-07-02T12:08:39;23.60;99.90
58517;DHT22;44308;50.810;0.284;2023-07-02T12:11:06;23.90;99.90
58517;DHT22;44308;50.810;0.284;2023-07-02T12:13:31;23.80;99.90
58517;DHT22;44308;50.810;0.284;2023-07-02T12:15:57;24.10;99.90
58517;DHT22;44308;50.810;0.284;2023-07-02T12:18:23;24.40;99.90
58517;DHT22;44308;50.810;0.284;2023-07-02T12:20:48;24.10;99.90
58517;DHT22;44308;50.810;0.284;2023-07-02T12:23:14;23.40;99.90
58517;DHT22;44308;50.810;0.284;2023-07-02T12:25:40;23.50;99.90
58517;DHT22;44308;50.810;0.284;2023-07-02T12:28:06;23.40;99.90
58517;DHT22;44308;50.810;0.284;2023-07-02T12:30:32;23.40;99.90
58517;DHT22;44308;50.810;0.284;2023-07-02T12:32:58;23.00;99.90
58517;DHT22;44308;50.810;0.284;2023-07-02T12:35:24;22.40;99.90
58517;DHT22;44308;50.810;0.284;2023-07-02T12:37:51;22.10;99.90
58517;DHT22;44308;50.810;0.284;2023-07-02T12:40:18;22.00;99.90
58517;DHT22;44308;50.810;0.284;2023-07-02T12:42:45;22.30;99.90
58517;DHT22;44308;50.810;0.284;2023-07-02T12:45:11;22.10;99.90
58517;DHT22;44308;50.810;0.284;2023-07-02T12:47:38;21.60;99.90
58517;DHT22;44308;50.810;0.284;2023-07-02T12:50:04;21.90;99.90
58517;DHT22;44308;50.810;0.284;2023-07-02T12:52:30;22.10;99.90
58517;DHT22;44308;50.810;0.284;2023-07-02T12:54:56;22.20;99.90
58517;DHT22;44308;50.810;0.284;2023-07-02T12:57:22;22.10;99.90
58517;DHT22;44308;50.810;0.284;2023-07-02T12:59:47;21.70;99.90
58517;DHT22;44308;50.810;0.284;2023-07-02T13:02:13;21.40;99.90
58517;DHT22;44308;50.810;0.284;2023-07-02T13:04:39;21.00;99.90
58517;DHT22;44308;50.810;0.284;2023-07-02T13:07:06;21.30;99.90
58517;DHT22;44308;50.810;0.284;2023-07-02T13:09:31;21.60;99.90
58517;DHT22;44308;50.810;0.284;2023-07-02T13:11:57;21.50;99.90
58517;DHT22;44308;50.810;0.284;2023-07-02T13:14:22;21.60;99.90
58517;DHT22;44308;50.810;0.284;2023-07-02T13:16:48;21.20;99.90
58517;DHT22;44308;50.810;0.284;2023-07-02T13:19:14;21.60;99.90
58517;DHT22;44308;50.810;0.284;2023-07-02T13:21:41;21.90;99.90
58517;DHT22;44308;50.810;0.284;2023-07-02T13:24:07;22.20;99.90
58517;DHT22;44308;50.810;0.284;2023-07-02T13:26:35;22.60;99.90
58517;DHT22;44308;50.810;0.284;2023-07-02T13:29:01;22.80;99.90
58517;DHT22;44308;50.810;0.284;2023-07-02T13:31:26;22.80;99.90
58517;DHT22;44308;50.810;0.284;2023-07-02T13:33:52;22.90;99.90
58517;DHT22;44308;50.810;0.284;2023-07-02T13:36:18;22.80;99.90
58517;DHT22;44308;50.810;0.284;2023-07-02T13:38:44;22.90;99.90
58517;DHT22;44308;50.810;0.284;2023-07-02T13:41:09;22.70;99.90
58517;DHT22;44308;50.810;0.284;2023-07-02T13:43:35;22.20;99.90
58517;DHT22;44308;50.810;0.284;2023-07-02T13:46:02;21.70;99.90
58517;DHT22;44308;50.810;0.284;2023-07-02T13:48:28;21.90;99.90
58517;DHT22;44308;50.810;0.284;2023-07-02T13:50:53;21.90;99.90
58517;DHT22;44308;50.810;0.284;2023-07-02T13:53:19;21.70;99.90
58517;DHT22;44308;50.810;0.284;2023-07-02T13:55:45;21.80;99.90
58517;DHT22;44308;50.810;0.284;2023-07-02T13:58:11;22.10;99.90
58517;DHT22;44308;50.810;0.284;2023-07-02T14:00:37;22.50;99.90
58517;DHT22;44308;50.810;0.284;2023-07-02T14:03:04;22.90;99.90
58517;DHT22;44308;50.810;0.284;2023-07-02T14:05:30;22.40;99.90
58517;DHT22;44308;50.810;0.284;2023-07-02T14:07:55;22.10;99.90
58517;DHT22;44308;50.810;0.284;2023-07-02T14:10:21;21.80;99.90
58517;DHT22;44308;50.810;0.284;2023-07-02T14:12:47;21.70;99.90
58517;DHT22;44308;50.810;0.284;2023-07-02T14:15:13;21.80;99.90
58517;DHT22;44308;50.810;0.284;2023-07-02T14:17:39;21.60;99.90
58517;DHT22;44308;50.810;0.284;2023-07-02T14:20:06;21.60;99.90
58517;DHT22;44308;50.810;0.284;2023-07-02T14:22:33;21.50;99.90
58517;DHT22;44308;50.810;0.284;2023-07-02T14:24:58;21.70;99.90
58517;DHT22;44308;50.810;0.284;2023-07-02T14:27:24;22.20;99.90
58517;DHT22;44308;50.810;0.284;2023-07-02T14:29:50;22.00;99.90
58517;DHT22;44308;50.810;0.284;2023-07-02T14:32:16;22.00;99.90
58517;DHT22;44308;50.810;0.284;2023-07-02T14:34:42;22.10;99.90
58517;DHT22;44308;50.810;0.284;2023-07-02T14:37:08;22.10;99.90
58517;DHT22;44308;50.810;0.284;2023-07-02T14:39:34;21.90;99.90
58517;DHT22;44308;50.810;0.284;2023-07-02T14:41:59;21.60;99.90
58517;DHT22;44308;50.810;0.284;2023-07-02T14:44:26;21.40;99.90
58517;DHT22;44308;50.810;0.284;2023-07-02T14:46:51;21.20;99.90
58517;DHT22;44308;50.810;0.284;2023-07-02T14:49:19;21.00;99.90
58517;DHT22;44308;50.810;0.284;2023-07-02T14:51:44;21.10;99.90
58517;DHT22;44308;50.810;0.284;2023-07-02T14:54:10;21.20;99.90
58517;DHT22;44308;50.810;0.284;2023-07-02T14:56:36;21.30;99.90
58517;DHT22;44308;50.810;0.284;2023-07-02T14:59:03;21.50;99.90
58517;DHT22;44308;50.810;0.284;2023-07-02T15:01:30;21.90;99.90
58517;DHT22;44308;50.810;0.284;2023-07-02T15:03:56;22.00;99.90
58517;DHT22;44308;50.810;0.284;2023-07-02T15:06:22;22.40;99.90
58517;DHT22;44308;50.810;0.284;2023-07-02T15:08:51;22.10;99.90
58517;DHT22;44308;50.810;0.284;2023-07-02T15:11:17;21.70;99.90
58517;DHT22;44308;50.810;0.284;2023-07-02T15:13:43;21.20;99.90
58517;DHT22;44308;50.810;0.284;2023-07-02T15:16:10;21.00;99.90
58517;DHT22;44308;50.810;0.284;2023-07-02T15:18:37;21.10;99.90
58517;DHT22;44308;50.810;0.284;2023-07-02T15:21:05;21.20;99.90
58517;DHT22;44308;50.810;0.284;2023-07-02T15:23:31;20.80;99.90
58517;DHT22;44308;50.810;0.284;2023-07-02T15:26:00;20.70;99.90
58517;DHT22;44308;50.810;0.284;2023-07-02T15:28:27;20.90;99.90
58517;DHT22;44308;50.810;0.284;2023-07-02T15:30:55;21.40;99.90
58517;DHT22;44308;50.810;0.284;2023-07-02T15:33:22;21.40;99.90
58517;DHT22;44308;50.810;0.284;2023-07-02T15:35:48;21.50;99.90